IBE36T LOWW-LEMH
Flight info
| Callsign | IBE36T |
|---|---|
| Flight time | 1h 51m |
| Altitude | 30000 |
| Route | RUPET DCT GRZ DCT RADLY/N0441F340 DCT PENEP/N0442F350 DCT ROSKA DCT TULIK DCT CHI DCT OLNUK DCT PIDAD DCT TALEP DCT VAREK DCT ERPIN DCT BALEN UT250 RIXOT |
| Aircraft | MD83/M-SDFGIRWY/S |
Departure
| Time | 2026-04-17 11:13 |
|---|---|
| Airport | Vienna International Airport (LOWW) |
Arrival
| Time | 2026-04-17 13:04 |
|---|---|
| Airport | Menorca Airport (LEMH) |
| Time | Latitude | Longitude | Altitude | Speed | Heading |
|---|---|---|---|---|---|
| 2026-04-17 10:46 | 48.11933 | 16.55815 | 623 ft | 0 kts | 296° |
| 2026-04-17 11:02 | 48.11931 | 16.55821 | 625 ft | 3 kts | 296° |
| 2026-04-17 11:02 | 48.11919 | 16.55857 | 618 ft | 3 kts | 296° |
| 2026-04-17 11:02 | 48.11913 | 16.55888 | 621 ft | 4 kts | 264° |
| 2026-04-17 11:02 | 48.11922 | 16.55916 | 622 ft | 4 kts | 220° |
| 2026-04-17 11:03 | 48.11943 | 16.55936 | 620 ft | 2 kts | 206° |
| 2026-04-17 11:03 | 48.11947 | 16.55939 | 622 ft | 0 kts | 206° |
| 2026-04-17 11:05 | 48.11942 | 16.55935 | 620 ft | 1 kts | 206° |
| 2026-04-17 11:06 | 48.11931 | 16.55928 | 622 ft | 2 kts | 206° |
| 2026-04-17 11:06 | 48.11914 | 16.55915 | 618 ft | 3 kts | 206° |
| 2026-04-17 11:06 | 48.11890 | 16.55898 | 613 ft | 4 kts | 206° |
| 2026-04-17 11:06 | 48.11860 | 16.55876 | 616 ft | 5 kts | 206° |
| 2026-04-17 11:07 | 48.11824 | 16.55850 | 615 ft | 6 kts | 206° |
| 2026-04-17 11:07 | 48.11783 | 16.55820 | 609 ft | 7 kts | 206° |
| 2026-04-17 11:07 | 48.11735 | 16.55785 | 615 ft | 8 kts | 203° |
| 2026-04-17 11:07 | 48.11689 | 16.55806 | 610 ft | 8 kts | 132° |
| 2026-04-17 11:08 | 48.11663 | 16.55880 | 621 ft | 8 kts | 115° |
| 2026-04-17 11:08 | 48.11637 | 16.55963 | 612 ft | 9 kts | 116° |
| 2026-04-17 11:08 | 48.11607 | 16.56054 | 612 ft | 10 kts | 116° |
| 2026-04-17 11:08 | 48.11575 | 16.56151 | 618 ft | 11 kts | 116° |
| 2026-04-17 11:09 | 48.11541 | 16.56258 | 620 ft | 12 kts | 116° |
| 2026-04-17 11:09 | 48.11499 | 16.56385 | 614 ft | 18 kts | 116° |
| 2026-04-17 11:09 | 48.11440 | 16.56567 | 623 ft | 20 kts | 116° |
| 2026-04-17 11:10 | 48.11317 | 16.56943 | 613 ft | 20 kts | 116° |
| 2026-04-17 11:10 | 48.11256 | 16.57130 | 619 ft | 18 kts | 116° |
| 2026-04-17 11:10 | 48.11218 | 16.57228 | 614 ft | 9 kts | 142° |
| 2026-04-17 11:10 | 48.11160 | 16.57225 | 619 ft | 9 kts | 210° |
| 2026-04-17 11:11 | 48.11103 | 16.57175 | 612 ft | 10 kts | 210° |
| 2026-04-17 11:11 | 48.11057 | 16.57129 | 623 ft | 6 kts | 233° |
| 2026-04-17 11:11 | 48.11053 | 16.57100 | 618 ft | 1 kts | 278° |
| 2026-04-17 11:11 | 48.11056 | 16.57090 | 622 ft | 1 kts | 301° |
| 2026-04-17 11:12 | 48.11062 | 16.57077 | 617 ft | 3 kts | 301° |
| 2026-04-17 11:12 | 48.11091 | 16.56990 | 617 ft | 22 kts | 296° |
| 2026-04-17 11:12 | 48.11244 | 16.56521 | 620 ft | 81 kts | 296° |
| 2026-04-17 11:12 | 48.11582 | 16.55486 | 622 ft | 138 kts | 296° |
| 2026-04-17 11:13 | 48.12071 | 16.53967 | 702 ft | 179 kts | 297° |
| 2026-04-17 11:13 | 48.12562 | 16.52283 | 1596 ft | 175 kts | 285° |
| 2026-04-17 11:13 | 48.12469 | 16.50448 | 2317 ft | 187 kts | 249° |
| 2026-04-17 11:13 | 48.11726 | 16.48950 | 2905 ft | 199 kts | 218° |
| 2026-04-17 11:14 | 48.10443 | 16.48023 | 3456 ft | 215 kts | 194° |
| 2026-04-17 11:14 | 48.09462 | 16.47791 | 3948 ft | 215 kts | 185° |
| 2026-04-17 11:14 | 48.07950 | 16.47429 | 4527 ft | 226 kts | 204° |
| 2026-04-17 11:14 | 48.06602 | 16.46176 | 5109 ft | 234 kts | 221° |
| 2026-04-17 11:15 | 48.05323 | 16.44569 | 5641 ft | 245 kts | 224° |
| 2026-04-17 11:15 | 48.03997 | 16.42787 | 5959 ft | 268 kts | 226° |
| 2026-04-17 11:15 | 48.02625 | 16.40815 | 6456 ft | 281 kts | 226° |
| 2026-04-17 11:15 | 48.01218 | 16.38768 | 7213 ft | 282 kts | 226° |
| 2026-04-17 11:16 | 47.99780 | 16.36723 | 7896 ft | 287 kts | 225° |
| 2026-04-17 11:16 | 47.98315 | 16.34696 | 8701 ft | 288 kts | 224° |
| 2026-04-17 11:16 | 47.96821 | 16.32681 | 9419 ft | 291 kts | 224° |
| 2026-04-17 11:16 | 47.95292 | 16.30680 | 10151 ft | 294 kts | 222° |
| 2026-04-17 11:17 | 47.93676 | 16.28716 | 10525 ft | 309 kts | 220° |
| 2026-04-17 11:17 | 47.91927 | 16.26669 | 10727 ft | 330 kts | 220° |
| 2026-04-17 11:17 | 47.90060 | 16.24523 | 10931 ft | 348 kts | 220° |
| 2026-04-17 11:17 | 47.88098 | 16.22256 | 11133 ft | 365 kts | 220° |
| 2026-04-17 11:18 | 47.86070 | 16.19900 | 11660 ft | 372 kts | 220° |
| 2026-04-17 11:18 | 47.84021 | 16.17518 | 12306 ft | 376 kts | 220° |
| 2026-04-17 11:18 | 47.81955 | 16.15102 | 12902 ft | 380 kts | 220° |
| 2026-04-17 11:18 | 47.79903 | 16.12690 | 13561 ft | 383 kts | 220° |
| 2026-04-17 11:19 | 47.77803 | 16.10215 | 14150 ft | 388 kts | 221° |
| 2026-04-17 11:19 | 47.75679 | 16.07707 | 14710 ft | 391 kts | 221° |
| 2026-04-17 11:19 | 47.73542 | 16.05181 | 15292 ft | 394 kts | 221° |
| 2026-04-17 11:19 | 47.71389 | 16.02637 | 15853 ft | 397 kts | 221° |
| 2026-04-17 11:20 | 47.69217 | 16.00072 | 16419 ft | 400 kts | 221° |
| 2026-04-17 11:20 | 47.67031 | 15.97490 | 16977 ft | 404 kts | 222° |
| 2026-04-17 11:20 | 47.64818 | 15.94877 | 17547 ft | 408 kts | 222° |
| 2026-04-17 11:20 | 47.62592 | 15.92248 | 18116 ft | 411 kts | 222° |
| 2026-04-17 11:21 | 47.60337 | 15.89601 | 18614 ft | 415 kts | 222° |
| 2026-04-17 11:21 | 47.58065 | 15.86939 | 19153 ft | 417 kts | 222° |
| 2026-04-17 11:21 | 47.55784 | 15.84265 | 19674 ft | 420 kts | 222° |
| 2026-04-17 11:21 | 47.53515 | 15.81599 | 20182 ft | 423 kts | 222° |
| 2026-04-17 11:22 | 47.51211 | 15.78880 | 20721 ft | 425 kts | 222° |
| 2026-04-17 11:22 | 47.48893 | 15.76142 | 21217 ft | 428 kts | 223° |
| 2026-04-17 11:22 | 47.46514 | 15.73443 | 21675 ft | 435 kts | 215° |
| 2026-04-17 11:22 | 47.43766 | 15.71467 | 22200 ft | 443 kts | 205° |
| 2026-04-17 11:23 | 47.40867 | 15.69869 | 22684 ft | 447 kts | 203° |
| 2026-04-17 11:23 | 47.37920 | 15.68325 | 23122 ft | 451 kts | 202° |
| 2026-04-17 11:23 | 47.34953 | 15.66772 | 23604 ft | 453 kts | 203° |
| 2026-04-17 11:23 | 47.31988 | 15.65196 | 24064 ft | 454 kts | 203° |
| 2026-04-17 11:24 | 47.29009 | 15.63580 | 24456 ft | 458 kts | 204° |
| 2026-04-17 11:24 | 47.26019 | 15.61929 | 24789 ft | 461 kts | 204° |
| 2026-04-17 11:24 | 47.23007 | 15.60242 | 25135 ft | 464 kts | 204° |
| 2026-04-17 11:24 | 47.20016 | 15.58560 | 25530 ft | 467 kts | 204° |
| 2026-04-17 11:25 | 47.16974 | 15.56851 | 25906 ft | 470 kts | 204° |
| 2026-04-17 11:25 | 47.13911 | 15.55135 | 26270 ft | 472 kts | 204° |
| 2026-04-17 11:25 | 47.10833 | 15.53422 | 26668 ft | 474 kts | 204° |
| 2026-04-17 11:25 | 47.07731 | 15.51704 | 27027 ft | 477 kts | 204° |
| 2026-04-17 11:26 | 47.04625 | 15.49989 | 27517 ft | 476 kts | 204° |
| 2026-04-17 11:26 | 47.01515 | 15.48279 | 28042 ft | 475 kts | 204° |
| 2026-04-17 11:26 | 46.98424 | 15.46579 | 28562 ft | 474 kts | 204° |
| 2026-04-17 11:26 | 46.95349 | 15.44849 | 29026 ft | 472 kts | 207° |
| 2026-04-17 11:27 | 46.92393 | 15.42793 | 29503 ft | 468 kts | 212° |
| 2026-04-17 11:27 | 46.89532 | 15.40533 | 29935 ft | 467 kts | 213° |
| 2026-04-17 11:27 | 46.86695 | 15.38211 | 30346 ft | 467 kts | 213° |
| 2026-04-17 11:27 | 46.83861 | 15.35898 | 30720 ft | 466 kts | 213° |
| 2026-04-17 11:28 | 46.81027 | 15.33617 | 31134 ft | 464 kts | 213° |
| 2026-04-17 11:28 | 46.78222 | 15.31397 | 31534 ft | 463 kts | 213° |
| 2026-04-17 11:28 | 46.75391 | 15.29183 | 31926 ft | 460 kts | 213° |
| 2026-04-17 11:28 | 46.72566 | 15.26992 | 32332 ft | 458 kts | 212° |
| 2026-04-17 11:29 | 46.69753 | 15.24818 | 32672 ft | 458 kts | 212° |
| 2026-04-17 11:29 | 46.66934 | 15.22641 | 32992 ft | 457 kts | 213° |
| 2026-04-17 11:29 | 46.64302 | 15.20126 | 33267 ft | 448 kts | 229° |
| 2026-04-17 11:29 | 46.62194 | 15.16871 | 33598 ft | 439 kts | 236° |
| 2026-04-17 11:30 | 46.60357 | 15.13545 | 33937 ft | 435 kts | 238° |
| 2026-04-17 11:30 | 46.58502 | 15.10078 | 34236 ft | 433 kts | 238° |
| 2026-04-17 11:30 | 46.56665 | 15.06613 | 34493 ft | 432 kts | 237° |
| 2026-04-17 11:30 | 46.54819 | 15.03174 | 34726 ft | 432 kts | 237° |
| 2026-04-17 11:31 | 46.52946 | 14.99747 | 34942 ft | 432 kts | 236° |
| 2026-04-17 11:31 | 46.51061 | 14.96354 | 35178 ft | 432 kts | 236° |
| 2026-04-17 11:31 | 46.49161 | 14.92971 | 35371 ft | 432 kts | 236° |
| 2026-04-17 11:31 | 46.47261 | 14.89607 | 35595 ft | 432 kts | 236° |
| 2026-04-17 11:32 | 46.45358 | 14.86236 | 35851 ft | 430 kts | 236° |
| 2026-04-17 11:32 | 46.43456 | 14.82868 | 36033 ft | 431 kts | 236° |
| 2026-04-17 11:32 | 46.39643 | 14.76099 | 36145 ft | 435 kts | 235° |
| 2026-04-17 11:33 | 46.35841 | 14.69404 | 36167 ft | 431 kts | 235° |
| 2026-04-17 11:33 | 46.32021 | 14.62771 | 36180 ft | 428 kts | 235° |
| 2026-04-17 11:34 | 46.28231 | 14.56124 | 36175 ft | 428 kts | 235° |
| 2026-04-17 11:34 | 46.24457 | 14.49462 | 36164 ft | 428 kts | 235° |
| 2026-04-17 11:35 | 46.20681 | 14.42798 | 36177 ft | 429 kts | 235° |
| 2026-04-17 11:35 | 46.16887 | 14.36129 | 36176 ft | 430 kts | 235° |
| 2026-04-17 11:36 | 46.13083 | 14.29451 | 36174 ft | 431 kts | 235° |
| 2026-04-17 11:36 | 46.09294 | 14.22748 | 36158 ft | 431 kts | 236° |
| 2026-04-17 11:37 | 46.05554 | 14.16043 | 36153 ft | 428 kts | 236° |
| 2026-04-17 11:37 | 46.01831 | 14.09357 | 36163 ft | 428 kts | 236° |
| 2026-04-17 11:38 | 45.98096 | 14.02665 | 36166 ft | 429 kts | 236° |
| 2026-04-17 11:38 | 45.94369 | 13.96012 | 36161 ft | 431 kts | 235° |
| 2026-04-17 11:39 | 45.90611 | 13.89316 | 36149 ft | 430 kts | 235° |
| 2026-04-17 11:39 | 45.86868 | 13.82656 | 36136 ft | 428 kts | 235° |
| 2026-04-17 11:40 | 45.83110 | 13.76027 | 36131 ft | 428 kts | 235° |
| 2026-04-17 11:40 | 45.79337 | 13.69405 | 36129 ft | 429 kts | 235° |
| 2026-04-17 11:41 | 45.75560 | 13.62766 | 36126 ft | 430 kts | 235° |
| 2026-04-17 11:41 | 45.71789 | 13.56133 | 36121 ft | 430 kts | 235° |
| 2026-04-17 11:42 | 45.68037 | 13.49546 | 36115 ft | 430 kts | 235° |
| 2026-04-17 11:42 | 45.64253 | 13.42915 | 36114 ft | 430 kts | 235° |
| 2026-04-17 11:43 | 45.60464 | 13.36287 | 36111 ft | 431 kts | 235° |
| 2026-04-17 11:43 | 45.56654 | 13.29681 | 36113 ft | 431 kts | 234° |
| 2026-04-17 11:44 | 45.52832 | 13.23084 | 36124 ft | 431 kts | 234° |
| 2026-04-17 11:44 | 45.49017 | 13.16490 | 36137 ft | 431 kts | 234° |
| 2026-04-17 11:45 | 45.45215 | 13.09919 | 36138 ft | 429 kts | 234° |
| 2026-04-17 11:45 | 45.41418 | 13.03360 | 36138 ft | 429 kts | 234° |
| 2026-04-17 11:46 | 45.37617 | 12.96803 | 36141 ft | 430 kts | 234° |
| 2026-04-17 11:46 | 45.33806 | 12.90244 | 36145 ft | 430 kts | 234° |
| 2026-04-17 11:47 | 45.30198 | 12.83551 | 36139 ft | 427 kts | 242° |
| 2026-04-17 11:47 | 45.27163 | 12.76318 | 36145 ft | 426 kts | 244° |
| 2026-04-17 11:48 | 45.24226 | 12.69006 | 36141 ft | 427 kts | 244° |
| 2026-04-17 11:48 | 45.21242 | 12.61720 | 36148 ft | 426 kts | 244° |
| 2026-04-17 11:49 | 45.18217 | 12.54499 | 36153 ft | 425 kts | 243° |
| 2026-04-17 11:49 | 45.15189 | 12.47316 | 36156 ft | 425 kts | 243° |
| 2026-04-17 11:50 | 45.12171 | 12.40146 | 36155 ft | 426 kts | 243° |
| 2026-04-17 11:50 | 45.09139 | 12.32934 | 36151 ft | 426 kts | 243° |
| 2026-04-17 11:51 | 45.06127 | 12.25699 | 36160 ft | 426 kts | 245° |
| 2026-04-17 11:51 | 45.03321 | 12.18471 | 36167 ft | 427 kts | 245° |
| 2026-04-17 11:52 | 45.00505 | 12.11089 | 36171 ft | 426 kts | 245° |
| 2026-04-17 11:52 | 44.97676 | 12.03740 | 36173 ft | 425 kts | 245° |
| 2026-04-17 11:53 | 44.94853 | 11.96474 | 36178 ft | 424 kts | 245° |
| 2026-04-17 11:53 | 44.92008 | 11.89163 | 36169 ft | 426 kts | 245° |
| 2026-04-17 11:54 | 44.89157 | 11.81845 | 36176 ft | 426 kts | 245° |
| 2026-04-17 11:54 | 44.86299 | 11.74519 | 36189 ft | 427 kts | 245° |
| 2026-04-17 11:55 | 44.83409 | 11.67201 | 36192 ft | 427 kts | 244° |
| 2026-04-17 11:55 | 44.80509 | 11.59893 | 36202 ft | 426 kts | 245° |
| 2026-04-17 11:56 | 44.77630 | 11.52623 | 36194 ft | 425 kts | 245° |
| 2026-04-17 11:56 | 44.74775 | 11.45399 | 36188 ft | 426 kts | 245° |
| 2026-04-17 11:57 | 44.71894 | 11.38114 | 36180 ft | 426 kts | 245° |
| 2026-04-17 11:57 | 44.69004 | 11.30823 | 36169 ft | 427 kts | 245° |
| 2026-04-17 11:58 | 44.66111 | 11.23537 | 36234 ft | 427 kts | 244° |
| 2026-04-17 11:58 | 44.63195 | 11.16287 | 36231 ft | 426 kts | 244° |
| 2026-04-17 11:59 | 44.60271 | 11.09050 | 36237 ft | 425 kts | 244° |
| 2026-04-17 11:59 | 44.57375 | 11.01864 | 36248 ft | 426 kts | 244° |
| 2026-04-17 12:00 | 44.54460 | 10.94625 | 36255 ft | 427 kts | 244° |
| 2026-04-17 12:00 | 44.51541 | 10.87383 | 36268 ft | 427 kts | 244° |
| 2026-04-17 12:01 | 44.48613 | 10.80127 | 36269 ft | 428 kts | 244° |
| 2026-04-17 12:01 | 44.45684 | 10.72881 | 36265 ft | 427 kts | 244° |
| 2026-04-17 12:02 | 44.42730 | 10.65672 | 36264 ft | 426 kts | 244° |
| 2026-04-17 12:02 | 44.39800 | 10.58463 | 36266 ft | 426 kts | 244° |
| 2026-04-17 12:03 | 44.37381 | 10.52460 | 36242 ft | 427 kts | 244° |
| 2026-04-17 12:03 | 44.34450 | 10.45242 | 36246 ft | 427 kts | 244° |
| 2026-04-17 12:04 | 44.31530 | 10.37991 | 36227 ft | 427 kts | 244° |
| 2026-04-17 12:04 | 44.28642 | 10.30765 | 36191 ft | 425 kts | 245° |
| 2026-04-17 12:05 | 44.25769 | 10.23573 | 36151 ft | 423 kts | 244° |
| 2026-04-17 12:05 | 44.22911 | 10.16427 | 36121 ft | 425 kts | 244° |
| 2026-04-17 12:06 | 44.20080 | 10.09376 | 36102 ft | 425 kts | 244° |
| 2026-04-17 12:06 | 44.17187 | 10.02181 | 36087 ft | 425 kts | 244° |
| 2026-04-17 12:07 | 44.14261 | 9.95005 | 36093 ft | 425 kts | 244° |
| 2026-04-17 12:07 | 44.11331 | 9.87849 | 36095 ft | 425 kts | 244° |
| 2026-04-17 12:08 | 44.08415 | 9.80701 | 36094 ft | 425 kts | 244° |
| 2026-04-17 12:08 | 44.05504 | 9.73566 | 36100 ft | 423 kts | 244° |
| 2026-04-17 12:09 | 44.02618 | 9.66499 | 36109 ft | 422 kts | 244° |
| 2026-04-17 12:09 | 43.99713 | 9.59393 | 36111 ft | 424 kts | 244° |
| 2026-04-17 12:10 | 43.96792 | 9.52261 | 36123 ft | 426 kts | 244° |
| 2026-04-17 12:10 | 43.93835 | 9.45129 | 36114 ft | 426 kts | 243° |
| 2026-04-17 12:11 | 43.90878 | 9.38038 | 36118 ft | 423 kts | 244° |
| 2026-04-17 12:12 | 43.86481 | 9.27461 | 36119 ft | 422 kts | 243° |
| 2026-04-17 12:12 | 43.83546 | 9.20391 | 36117 ft | 424 kts | 244° |
| 2026-04-17 12:13 | 43.80587 | 9.13278 | 36121 ft | 426 kts | 243° |
| 2026-04-17 12:13 | 43.77642 | 9.06215 | 36115 ft | 424 kts | 243° |
| 2026-04-17 12:14 | 43.74676 | 8.99199 | 36120 ft | 421 kts | 242° |
| 2026-04-17 12:14 | 43.71673 | 8.92238 | 36121 ft | 422 kts | 243° |
| 2026-04-17 12:15 | 43.68715 | 8.85220 | 36118 ft | 423 kts | 243° |
| 2026-04-17 12:15 | 43.65784 | 8.78162 | 36118 ft | 423 kts | 243° |
| 2026-04-17 12:15 | 43.64069 | 8.74843 | 36126 ft | 429 kts | 227° |
| 2026-04-17 12:16 | 43.61665 | 8.72364 | 36133 ft | 437 kts | 208° |
| 2026-04-17 12:16 | 43.58774 | 8.71015 | 36126 ft | 443 kts | 190° |
| 2026-04-17 12:16 | 43.55689 | 8.70754 | 36122 ft | 446 kts | 181° |
| 2026-04-17 12:17 | 43.49466 | 8.71052 | 36113 ft | 447 kts | 179° |
| 2026-04-17 12:17 | 43.46414 | 8.70963 | 36117 ft | 443 kts | 192° |
| 2026-04-17 12:17 | 43.43491 | 8.69790 | 36130 ft | 437 kts | 206° |
| 2026-04-17 12:18 | 43.38007 | 8.66175 | 36123 ft | 437 kts | 210° |
| 2026-04-17 12:18 | 43.32555 | 8.62419 | 36124 ft | 438 kts | 209° |
| 2026-04-17 12:19 | 43.27060 | 8.58754 | 36127 ft | 440 kts | 208° |
| 2026-04-17 12:19 | 43.21513 | 8.55177 | 36128 ft | 441 kts | 208° |
| 2026-04-17 12:20 | 43.15960 | 8.51630 | 36126 ft | 440 kts | 208° |
| 2026-04-17 12:20 | 43.10432 | 8.48090 | 36125 ft | 438 kts | 208° |
| 2026-04-17 12:21 | 43.04900 | 8.44545 | 36127 ft | 439 kts | 208° |
| 2026-04-17 12:21 | 42.99346 | 8.41005 | 36128 ft | 440 kts | 208° |
| 2026-04-17 12:22 | 42.93786 | 8.37460 | 36126 ft | 441 kts | 208° |
| 2026-04-17 12:22 | 42.88212 | 8.33904 | 36118 ft | 443 kts | 208° |
| 2026-04-17 12:23 | 42.82679 | 8.30388 | 36130 ft | 440 kts | 208° |
| 2026-04-17 12:23 | 42.77143 | 8.26871 | 36121 ft | 438 kts | 208° |
| 2026-04-17 12:24 | 42.71613 | 8.23362 | 36114 ft | 439 kts | 208° |
| 2026-04-17 12:24 | 42.66037 | 8.19838 | 36126 ft | 443 kts | 207° |
| 2026-04-17 12:25 | 42.60440 | 8.16324 | 36128 ft | 443 kts | 207° |
| 2026-04-17 12:25 | 42.54858 | 8.12816 | 36123 ft | 441 kts | 207° |
| 2026-04-17 12:26 | 42.49299 | 8.09320 | 36124 ft | 440 kts | 207° |
| 2026-04-17 12:26 | 42.43734 | 8.05824 | 36127 ft | 441 kts | 207° |
| 2026-04-17 12:27 | 42.38194 | 8.02352 | 36132 ft | 442 kts | 207° |
| 2026-04-17 12:27 | 42.32606 | 7.98859 | 36130 ft | 442 kts | 207° |
| 2026-04-17 12:28 | 42.26951 | 7.95536 | 36124 ft | 444 kts | 204° |
| 2026-04-17 12:28 | 42.21206 | 7.92460 | 36132 ft | 444 kts | 204° |
| 2026-04-17 12:29 | 42.15466 | 7.89368 | 36131 ft | 443 kts | 205° |
| 2026-04-17 12:29 | 42.09760 | 7.86239 | 36130 ft | 442 kts | 205° |
| 2026-04-17 12:30 | 42.04051 | 7.83093 | 36135 ft | 444 kts | 205° |
| 2026-04-17 12:30 | 41.98360 | 7.79970 | 36136 ft | 445 kts | 205° |
| 2026-04-17 12:31 | 41.92626 | 7.76835 | 36132 ft | 445 kts | 205° |
| 2026-04-17 12:31 | 41.86877 | 7.73703 | 36136 ft | 446 kts | 204° |
| 2026-04-17 12:32 | 41.81291 | 7.70169 | 36143 ft | 440 kts | 222° |
| 2026-04-17 12:32 | 41.79193 | 7.67263 | 36147 ft | 432 kts | 241° |
| 2026-04-17 12:32 | 41.77895 | 7.63673 | 36146 ft | 424 kts | 259° |
| 2026-04-17 12:33 | 41.76460 | 7.56019 | 36127 ft | 427 kts | 254° |
| 2026-04-17 12:33 | 41.73992 | 7.48771 | 36132 ft | 429 kts | 245° |
| 2026-04-17 12:34 | 41.71048 | 7.41816 | 36136 ft | 430 kts | 243° |
| 2026-04-17 12:34 | 41.67999 | 7.34903 | 36139 ft | 431 kts | 243° |
| 2026-04-17 12:35 | 41.64993 | 7.28008 | 36138 ft | 432 kts | 244° |
| 2026-04-17 12:35 | 41.61996 | 7.21036 | 36139 ft | 432 kts | 244° |
| 2026-04-17 12:37 | 41.49943 | 6.93292 | 36144 ft | 435 kts | 243° |
| 2026-04-17 12:38 | 41.46907 | 6.86314 | 36143 ft | 434 kts | 243° |
| 2026-04-17 12:38 | 41.43881 | 6.79378 | 36143 ft | 431 kts | 243° |
| 2026-04-17 12:39 | 41.40889 | 6.72522 | 36138 ft | 430 kts | 243° |
| 2026-04-17 12:39 | 41.37855 | 6.65648 | 36150 ft | 431 kts | 243° |
| 2026-04-17 12:40 | 41.34804 | 6.58750 | 36143 ft | 434 kts | 243° |
| 2026-04-17 12:40 | 41.31733 | 6.51798 | 36146 ft | 436 kts | 243° |
| 2026-04-17 12:41 | 41.28664 | 6.44857 | 36147 ft | 434 kts | 243° |
| 2026-04-17 12:41 | 41.25616 | 6.37973 | 36149 ft | 431 kts | 244° |
| 2026-04-17 12:42 | 41.22582 | 6.31109 | 36150 ft | 431 kts | 243° |
| 2026-04-17 12:42 | 41.19532 | 6.24233 | 36157 ft | 432 kts | 243° |
| 2026-04-17 12:43 | 41.16471 | 6.17414 | 36156 ft | 434 kts | 243° |
| 2026-04-17 12:43 | 41.13370 | 6.10520 | 36151 ft | 435 kts | 243° |
| 2026-04-17 12:44 | 41.10262 | 6.03607 | 36150 ft | 434 kts | 243° |
| 2026-04-17 12:44 | 41.07176 | 5.96730 | 36154 ft | 433 kts | 243° |
| 2026-04-17 12:45 | 41.04121 | 5.89925 | 36153 ft | 432 kts | 243° |
| 2026-04-17 12:45 | 41.01039 | 5.83068 | 36154 ft | 433 kts | 243° |
| 2026-04-17 12:46 | 40.97949 | 5.76199 | 36158 ft | 434 kts | 243° |
| 2026-04-17 12:46 | 40.94865 | 5.69316 | 36149 ft | 435 kts | 242° |
| 2026-04-17 12:47 | 40.91418 | 5.62664 | 35800 ft | 445 kts | 237° |
| 2026-04-17 12:47 | 40.89572 | 5.59369 | 35368 ft | 446 kts | 237° |
| 2026-04-17 12:47 | 40.87733 | 5.56078 | 34786 ft | 444 kts | 237° |
| 2026-04-17 12:47 | 40.85938 | 5.52823 | 34104 ft | 443 kts | 238° |
| 2026-04-17 12:48 | 40.84140 | 5.49513 | 33275 ft | 443 kts | 238° |
| 2026-04-17 12:48 | 40.82359 | 5.46195 | 32503 ft | 443 kts | 238° |
| 2026-04-17 12:48 | 40.80585 | 5.42874 | 31727 ft | 442 kts | 238° |
| 2026-04-17 12:48 | 40.78820 | 5.39566 | 31011 ft | 441 kts | 237° |
| 2026-04-17 12:49 | 40.77056 | 5.36266 | 30322 ft | 439 kts | 237° |
| 2026-04-17 12:49 | 40.75294 | 5.32982 | 29573 ft | 436 kts | 237° |
| 2026-04-17 12:49 | 40.73545 | 5.29734 | 28906 ft | 432 kts | 237° |
| 2026-04-17 12:49 | 40.71811 | 5.26520 | 28237 ft | 428 kts | 237° |
| 2026-04-17 12:50 | 40.70093 | 5.23336 | 27583 ft | 425 kts | 236° |
| 2026-04-17 12:50 | 40.68386 | 5.20188 | 26950 ft | 421 kts | 236° |
| 2026-04-17 12:50 | 40.67256 | 5.18114 | 26541 ft | 419 kts | 236° |
| 2026-04-17 12:50 | 40.65560 | 5.15005 | 25911 ft | 416 kts | 236° |
| 2026-04-17 12:51 | 40.63327 | 5.10914 | 25039 ft | 414 kts | 236° |
| 2026-04-17 12:51 | 40.61699 | 5.07925 | 24385 ft | 413 kts | 236° |
| 2026-04-17 12:51 | 40.60567 | 5.05848 | 23931 ft | 413 kts | 236° |
| 2026-04-17 12:51 | 40.58914 | 5.02813 | 23181 ft | 412 kts | 236° |
| 2026-04-17 12:52 | 40.57249 | 4.99759 | 22471 ft | 410 kts | 236° |
| 2026-04-17 12:52 | 40.55596 | 4.96730 | 21811 ft | 406 kts | 236° |
| 2026-04-17 12:52 | 40.53956 | 4.93728 | 21184 ft | 402 kts | 236° |
| 2026-04-17 12:52 | 40.52336 | 4.90764 | 20570 ft | 397 kts | 236° |
| 2026-04-17 12:53 | 40.50731 | 4.87827 | 19960 ft | 394 kts | 236° |
| 2026-04-17 12:53 | 40.49143 | 4.84920 | 19361 ft | 390 kts | 236° |
| 2026-04-17 12:53 | 40.47568 | 4.82038 | 18750 ft | 387 kts | 236° |
| 2026-04-17 12:53 | 40.45976 | 4.79196 | 18084 ft | 385 kts | 232° |
| 2026-04-17 12:54 | 40.44224 | 4.76547 | 17436 ft | 382 kts | 229° |
| 2026-04-17 12:54 | 40.42427 | 4.74014 | 16867 ft | 376 kts | 228° |
| 2026-04-17 12:54 | 40.40643 | 4.71543 | 16372 ft | 369 kts | 227° |
| 2026-04-17 12:54 | 40.38882 | 4.69125 | 15897 ft | 362 kts | 227° |
| 2026-04-17 12:55 | 40.37162 | 4.66777 | 15427 ft | 353 kts | 227° |
| 2026-04-17 12:55 | 40.35451 | 4.64450 | 14751 ft | 355 kts | 227° |
| 2026-04-17 12:55 | 40.33751 | 4.62137 | 14029 ft | 359 kts | 227° |
| 2026-04-17 12:55 | 40.32013 | 4.59776 | 13248 ft | 360 kts | 227° |
| 2026-04-17 12:56 | 40.30283 | 4.57428 | 12537 ft | 355 kts | 227° |
| 2026-04-17 12:56 | 40.28565 | 4.55103 | 11745 ft | 354 kts | 227° |
| 2026-04-17 12:56 | 40.26859 | 4.52802 | 11043 ft | 348 kts | 227° |
| 2026-04-17 12:56 | 40.25200 | 4.50571 | 10591 ft | 335 kts | 227° |
| 2026-04-17 12:57 | 40.23615 | 4.48444 | 10286 ft | 317 kts | 227° |
| 2026-04-17 12:57 | 40.22110 | 4.46432 | 9997 ft | 302 kts | 227° |
| 2026-04-17 12:57 | 40.20661 | 4.44501 | 9486 ft | 295 kts | 227° |
| 2026-04-17 12:57 | 40.19227 | 4.42586 | 8892 ft | 293 kts | 227° |
| 2026-04-17 12:58 | 40.17805 | 4.40687 | 8305 ft | 290 kts | 227° |
| 2026-04-17 12:58 | 40.16416 | 4.38829 | 7696 ft | 289 kts | 227° |
| 2026-04-17 12:58 | 40.15021 | 4.36954 | 7092 ft | 286 kts | 227° |
| 2026-04-17 12:58 | 40.13647 | 4.35104 | 6474 ft | 282 kts | 227° |
| 2026-04-17 12:59 | 40.12286 | 4.33271 | 5846 ft | 279 kts | 227° |
| 2026-04-17 12:59 | 40.10939 | 4.31456 | 5222 ft | 276 kts | 227° |
| 2026-04-17 12:59 | 40.09608 | 4.29663 | 4690 ft | 270 kts | 227° |
| 2026-04-17 12:59 | 40.08323 | 4.27936 | 4306 ft | 260 kts | 227° |
| 2026-04-17 13:00 | 40.07042 | 4.26330 | 3997 ft | 249 kts | 213° |
| 2026-04-17 13:00 | 40.05475 | 4.25640 | 3895 ft | 228 kts | 188° |
| 2026-04-17 13:00 | 40.03940 | 4.25387 | 3619 ft | 217 kts | 186° |
| 2026-04-17 13:00 | 40.02470 | 4.25185 | 3307 ft | 209 kts | 185° |
| 2026-04-17 13:01 | 40.01043 | 4.24931 | 3002 ft | 204 kts | 189° |
| 2026-04-17 13:01 | 39.99659 | 4.24646 | 2772 ft | 199 kts | 190° |
| 2026-04-17 13:01 | 39.98313 | 4.24378 | 2588 ft | 194 kts | 189° |
| 2026-04-17 13:01 | 39.97000 | 4.24100 | 2432 ft | 183 kts | 190° |
| 2026-04-17 13:02 | 39.95771 | 4.23839 | 2173 ft | 177 kts | 189° |
| 2026-04-17 13:02 | 39.94591 | 4.23608 | 1954 ft | 167 kts | 191° |
| 2026-04-17 13:02 | 39.93472 | 4.23362 | 1661 ft | 158 kts | 191° |
| 2026-04-17 13:02 | 39.92433 | 4.23137 | 1380 ft | 150 kts | 190° |
| 2026-04-17 13:03 | 39.91429 | 4.22934 | 1110 ft | 145 kts | 190° |
| 2026-04-17 13:03 | 39.90452 | 4.22735 | 965 ft | 140 kts | 190° |
| 2026-04-17 13:03 | 39.89489 | 4.22539 | 805 ft | 139 kts | 192° |
| 2026-04-17 13:03 | 39.88531 | 4.22333 | 617 ft | 139 kts | 192° |
| 2026-04-17 13:04 | 39.87580 | 4.22136 | 411 ft | 137 kts | 190° |
| 2026-04-17 13:04 | 39.86696 | 4.21960 | 301 ft | 126 kts | 188° |
| 2026-04-17 13:04 | 39.86013 | 4.21819 | 298 ft | 68 kts | 189° |
| 2026-04-17 13:04 | 39.85673 | 4.21754 | 297 ft | 31 kts | 184° |
| 2026-04-17 13:05 | 39.85501 | 4.21802 | 297 ft | 25 kts | 161° |
| 2026-04-17 13:05 | 39.85415 | 4.21846 | 293 ft | 8 kts | 142° |
| 2026-04-17 13:05 | 39.85409 | 4.21912 | 294 ft | 8 kts | 58° |
| 2026-04-17 13:05 | 39.85456 | 4.21944 | 294 ft | 8 kts | 8° |
| 2026-04-17 13:06 | 39.85512 | 4.21955 | 294 ft | 9 kts | 8° |
| 2026-04-17 13:06 | 39.85582 | 4.21968 | 295 ft | 12 kts | 7° |
| 2026-04-17 13:06 | 39.85697 | 4.21987 | 298 ft | 20 kts | 7° |
| 2026-04-17 13:06 | 39.85856 | 4.22021 | 298 ft | 24 kts | 9° |
| 2026-04-17 13:07 | 39.86026 | 4.22057 | 296 ft | 25 kts | 9° |
| 2026-04-17 13:07 | 39.86151 | 4.22082 | 298 ft | 7 kts | 9° |
| 2026-04-17 13:07 | 39.86160 | 4.22084 | 299 ft | 1 kts | 9° |
| 2026-04-17 13:07 | 39.86172 | 4.22089 | 300 ft | 2 kts | 25° |
| 2026-04-17 13:08 | 39.86186 | 4.22109 | 297 ft | 4 kts | 59° |
| 2026-04-17 13:08 | 39.86189 | 4.22145 | 296 ft | 5 kts | 97° |
| 2026-04-17 13:08 | 39.86184 | 4.22215 | 296 ft | 10 kts | 86° |
| 2026-04-17 13:08 | 39.86231 | 4.22272 | 297 ft | 10 kts | 5° |
| 2026-04-17 13:09 | 39.86303 | 4.22284 | 298 ft | 6 kts | 11° |
| 2026-04-17 13:09 | 39.86326 | 4.22322 | 298 ft | 5 kts | 92° |
| 2026-04-17 13:09 | 39.86318 | 4.22369 | 297 ft | 5 kts | 98° |
| 2026-04-17 13:09 | 39.86317 | 4.22375 | 296 ft | 0 kts | 98° |